Time;durP1;ratioP1;P1;durP2;ratioP2;P2;SDS_P1;SDS_P2;PMS_P1;PMS_P2;Temp;Humidity;BMP_temperature;BMP_pressure;BME280_temperature;BME280_humidity;BME280_pressure;Samples;Min_cycle;Max_cycle;Signal;HPM_P1;HPM_P2
2023/09/20 00:00:54;;;;;;;8.65;3.40;;;15.40;99.90;;;;;;5046855;28;20037;-67
2023/09/20 00:03:20;;;;;;;11.63;3.63;;;15.40;99.90;;;;;;5047648;28;20060;-68
2023/09/20 00:05:49;;;;;;;8.77;3.50;;;15.50;99.90;;;;;;5048019;28;20053;-67
2023/09/20 00:08:14;;;;;;;9.18;3.80;;;15.50;99.90;;;;;;5048504;28;20049;-67
2023/09/20 00:10:40;;;;;;;13.18;3.95;;;15.50;99.90;;;;;;5047859;28;20148;-67
2023/09/20 00:13:07;;;;;;;10.98;3.80;;;15.50;99.90;;;;;;5048805;28;20130;-67
2023/09/20 00:15:33;;;;;;;8.38;3.92;;;15.50;99.90;;;;;;5046691;28;20453;-67
2023/09/20 00:17:58;;;;;;;9.93;4.03;;;15.60;99.90;;;;;;5031258;28;20049;-67
2023/09/20 00:20:25;;;;;;;9.90;4.50;;;15.60;99.90;;;;;;5044644;28;20123;-66
2023/09/20 00:22:51;;;;;;;13.57;4.05;;;15.60;99.90;;;;;;5028262;28;20473;-67
2023/09/20 00:25:17;;;;;;;9.10;3.80;;;15.60;99.90;;;;;;5027464;28;20045;-67
2023/09/20 00:27:46;;;;;;;6.15;3.60;;;15.70;99.90;;;;;;5028800;28;20045;-67
2023/09/20 00:30:15;;;;;;;8.65;3.75;;;15.70;99.90;;;;;;5026258;28;20049;-67
2023/09/20 00:32:42;;;;;;;12.32;4.07;;;15.80;99.90;;;;;;5027749;28;20488;-67
2023/09/20 00:35:16;;;;;;;9.18;3.58;;;15.80;99.90;;;;;;5028622;28;20165;-66
2023/09/20 00:37:44;;;;;;;7.53;3.80;;;15.90;99.90;;;;;;5031146;28;20049;-66
2023/09/20 00:40:16;;;;;;;11.45;4.35;;;15.90;99.90;;;;;;5048405;28;20727;-68
2023/09/20 00:42:43;;;;;;;8.70;3.33;;;15.90;99.90;;;;;;5048294;28;20033;-67
2023/09/20 00:45:09;;;;;;;10.90;3.47;;;16.00;99.90;;;;;;5046713;28;20123;-66
2023/09/20 00:47:40;;;;;;;10.65;4.10;;;16.00;99.90;;;;;;5047425;28;20156;-67
2023/09/20 00:50:13;;;;;;;7.13;3.53;;;15.90;99.90;;;;;;5047655;28;20131;-72
2023/09/20 00:52:42;;;;;;;9.40;4.38;;;16.00;99.90;;;;;;5048668;28;20041;-70
2023/09/20 00:55:29;;;;;;;7.95;3.35;;;16.00;99.90;;;;;;5046082;28;20037;-67
2023/09/20 00:58:09;;;;;;;13.00;3.85;;;16.00;99.90;;;;;;5048358;28;20106;-67
2023/09/20 01:00:37;;;;;;;8.35;3.97;;;16.00;99.90;;;;;;5029795;28;20041;-68
2023/09/20 01:03:04;;;;;;;11.95;3.92;;;15.90;99.90;;;;;;5046781;28;20049;-68
2023/09/20 01:05:34;;;;;;;10.57;3.33;;;16.00;99.90;;;;;;5048612;28;20045;-67
2023/09/20 01:08:01;;;;;;;9.95;3.53;;;16.00;99.90;;;;;;5048482;28;20037;-67
2023/09/20 01:10:27;;;;;;;10.20;3.78;;;16.00;99.90;;;;;;5044547;28;24063;-67
2023/09/20 01:12:54;;;;;;;9.98;3.75;;;16.00;99.90;;;;;;5048439;28;20169;-67
2023/09/20 01:15:25;;;;;;;6.70;2.85;;;16.00;99.90;;;;;;5029521;28;20140;-66
2023/09/20 01:17:56;;;;;;;8.20;2.88;;;16.10;99.90;;;;;;5047604;28;20041;-67
2023/09/20 01:20:24;;;;;;;9.02;3.13;;;16.10;99.90;;;;;;5047695;28;20067;-68
2023/09/20 01:22:51;;;;;;;8.25;3.17;;;16.10;99.90;;;;;;5048774;28;20076;-67
2023/09/20 01:25:24;;;;;;;7.53;3.47;;;16.10;99.90;;;;;;5047485;28;20478;-66
2023/09/20 01:28:03;;;;;;;7.40;3.03;;;16.10;99.90;;;;;;5047398;28;20060;-67
2023/09/20 01:30:31;;;;;;;10.88;3.28;;;16.10;99.90;;;;;;5046160;28;20437;-68
2023/09/20 01:32:59;;;;;;;9.10;2.90;;;16.10;99.90;;;;;;5048857;28;20040;-67
2023/09/20 01:35:29;;;;;;;9.10;2.92;;;16.20;99.90;;;;;;5051492;28;20073;-67
2023/09/20 01:37:55;;;;;;;6.28;2.80;;;16.20;99.90;;;;;;5051961;28;20041;-67
2023/09/20 01:40:26;;;;;;;9.63;3.10;;;16.30;99.90;;;;;;5051042;28;20449;-67
2023/09/20 01:42:59;;;;;;;8.70;3.28;;;16.30;99.90;;;;;;5052033;28;20083;-67
2023/09/20 01:45:25;;;;;;;7.25;2.92;;;16.30;99.90;;;;;;5048979;28;20056;-68
2023/09/20 01:47:53;;;;;;;12.52;3.35;;;16.30;99.90;;;;;;5050597;28;20131;-68
2023/09/20 01:50:23;;;;;;;9.45;2.80;;;16.30;99.90;;;;;;5034341;28;20071;-66
2023/09/20 01:52:50;;;;;;;6.80;3.08;;;16.30;99.90;;;;;;5052164;28;20041;-66
2023/09/20 01:55:18;;;;;;;11.63;3.50;;;16.40;99.90;;;;;;5050189;28;20201;-67
2023/09/20 01:57:47;;;;;;;7.20;3.22;;;16.40;99.90;;;;;;5051622;28;20091;-67
2023/09/20 02:00:33;;;;;;;8.55;3.33;;;16.40;99.90;;;;;;5049917;28;20773;-67
2023/09/20 02:03:00;;;;;;;9.18;3.15;;;16.40;99.90;;;;;;5050205;28;20095;-67
2023/09/20 02:05:27;;;;;;;8.65;3.08;;;16.40;99.90;;;;;;5051339;28;20369;-67
2023/09/20 02:07:56;;;;;;;8.55;2.80;;;16.40;99.90;;;;;;5051616;28;20044;-68
2023/09/20 02:10:22;;;;;;;6.90;2.87;;;16.40;99.90;;;;;;5050212;28;20127;-67
2023/09/20 02:12:51;;;;;;;9.52;2.75;;;16.40;99.90;;;;;;5051082;28;20125;-67
2023/09/20 02:15:21;;;;;;;8.20;3.25;;;16.50;99.90;;;;;;5049053;28;20564;-67
2023/09/20 02:17:47;;;;;;;8.55;3.00;;;16.50;99.90;;;;;;5049718;28;20041;-67
2023/09/20 02:20:19;;;;;;;6.90;2.78;;;16.60;99.90;;;;;;5033947;28;20102;-67
2023/09/20 02:22:46;;;;;;;5.00;2.70;;;16.60;99.90;;;;;;5051594;28;20044;-68
2023/09/20 02:25:12;;;;;;;8.25;3.08;;;16.60;99.90;;;;;;5050148;28;20037;-67
2023/09/20 02:27:43;;;;;;;8.90;3.42;;;16.60;99.90;;;;;;5050807;28;20045;-69
2023/09/20 02:30:16;;;;;;;8.85;2.70;;;16.60;99.90;;;;;;5048846;28;20052;-67
2023/09/20 02:32:43;;;;;;;8.85;2.90;;;16.50;99.90;;;;;;5050131;28;20109;-67
2023/09/20 02:35:11;;;;;;;9.80;3.10;;;16.60;99.90;;;;;;5048713;28;20041;-68
2023/09/20 02:37:38;;;;;;;8.13;2.83;;;16.60;99.90;;;;;;5031199;28;20049;-67
2023/09/20 02:40:07;;;;;;;8.95;2.83;;;16.60;99.90;;;;;;5030231;28;20129;-67
2023/09/20 02:42:43;;;;;;;9.65;3.53;;;16.60;99.90;;;;;;5031257;28;20116;-67
2023/09/20 02:45:10;;;;;;;8.60;2.90;;;16.60;99.90;;;;;;5027889;28;20092;-68
2023/09/20 02:47:36;;;;;;;6.75;2.40;;;16.60;99.90;;;;;;5030272;28;20047;-68
2023/09/20 02:50:04;;;;;;;9.45;2.75;;;16.70;99.90;;;;;;5032476;28;20123;-67
2023/09/20 02:52:34;;;;;;;9.43;2.78;;;16.70;99.90;;;;;;5050824;28;20116;-67
2023/09/20 02:55:00;;;;;;;7.13;2.53;;;16.80;99.90;;;;;;5049626;28;20052;-67
2023/09/20 02:57:26;;;;;;;8.18;2.65;;;16.70;99.90;;;;;;5050522;28;20045;-68
2023/09/20 02:59:52;;;;;;;4.57;2.90;;;16.70;99.90;;;;;;5048923;28;20484;-68
2023/09/20 03:02:19;;;;;;;4.70;2.72;;;16.70;99.90;;;;;;5049422;28;20053;-66
2023/09/20 03:04:45;;;;;;;6.30;2.42;;;16.70;99.90;;;;;;5050229;28;20382;-67
2023/09/20 03:07:10;;;;;;;7.45;2.67;;;16.70;99.90;;;;;;5034180;28;20067;-67
2023/09/20 03:09:36;;;;;;;7.45;2.38;;;16.70;99.90;;;;;;5049119;28;20047;-67
2023/09/20 03:12:06;;;;;;;11.25;3.28;;;16.80;99.90;;;;;;5049881;28;20053;-66
2023/09/20 03:14:33;;;;;;;10.57;3.05;;;16.70;99.90;;;;;;5048696;28;20067;-68
2023/09/20 03:17:00;;;;;;;10.07;2.88;;;16.70;99.90;;;;;;5049135;28;20167;-67
2023/09/20 03:19:26;;;;;;;9.05;2.67;;;16.70;99.90;;;;;;5049589;28;20048;-67
2023/09/20 03:21:51;;;;;;;8.38;2.92;;;16.70;99.90;;;;;;5050583;28;20033;-67
2023/09/20 03:24:17;;;;;;;6.85;2.35;;;16.70;99.90;;;;;;5048923;28;20041;-67
2023/09/20 03:26:44;;;;;;;10.00;3.03;;;16.70;99.90;;;;;;5049748;28;20037;-67
2023/09/20 03:29:10;;;;;;;5.50;2.70;;;16.60;99.90;;;;;;5049207;28;20068;-68
2023/09/20 03:31:36;;;;;;;9.30;3.20;;;16.60;99.90;;;;;;5048208;28;20481;-67
2023/09/20 03:34:03;;;;;;;6.55;3.05;;;16.60;99.90;;;;;;5049260;28;20531;-66
2023/09/20 03:36:29;;;;;;;7.63;2.72;;;16.60;99.90;;;;;;5033347;28;20037;-68
2023/09/20 03:38:57;;;;;;;6.22;2.30;;;16.60;99.90;;;;;;5033212;28;20099;-67
2023/09/20 03:41:24;;;;;;;10.65;3.17;;;16.60;99.90;;;;;;5048306;28;20037;-68
2023/09/20 03:43:50;;;;;;;5.65;3.05;;;16.60;99.90;;;;;;5050020;28;20041;-68
2023/09/20 03:46:16;;;;;;;9.57;3.47;;;16.60;99.90;;;;;;5047564;28;20052;-67
2023/09/20 03:48:44;;;;;;;9.60;3.25;;;16.60;99.90;;;;;;5046365;28;20123;-67
2023/09/20 03:51:15;;;;;;;8.32;2.83;;;16.60;99.90;;;;;;5049358;28;20072;-67
2023/09/20 03:53:44;;;;;;;5.72;2.63;;;16.60;99.90;;;;;;5050949;28;20366;-72
2023/09/20 03:56:11;;;;;;;11.93;2.97;;;16.50;99.90;;;;;;5048847;28;20037;-67
2023/09/20 03:58:37;;;;;;;8.93;2.88;;;16.50;99.90;;;;;;5049799;28;20048;-66
2023/09/20 04:01:03;;;;;;;11.48;3.20;;;16.50;99.90;;;;;;5047680;28;20595;-67
2023/09/20 04:03:29;;;;;;;8.93;2.80;;;16.40;99.90;;;;;;5048340;28;20065;-66
2023/09/20 04:05:57;;;;;;;9.38;3.30;;;16.40;99.90;;;;;;5049074;28;20052;-66
2023/09/20 04:08:22;;;;;;;9.98;3.33;;;16.30;99.90;;;;;;5049246;28;20622;-66
2023/09/20 04:10:49;;;;;;;12.95;2.92;;;16.30;99.90;;;;;;5048718;28;20045;-66
2023/09/20 04:13:15;;;;;;;7.05;2.80;;;16.20;99.90;;;;;;5049533;28;20036;-66
2023/09/20 04:15:44;;;;;;;10.75;2.90;;;16.20;99.90;;;;;;5048718;28;20048;-67
2023/09/20 04:18:10;;;;;;;12.20;2.90;;;16.20;99.90;;;;;;5048093;28;20480;-66
2023/09/20 04:20:37;;;;;;;12.98;3.63;;;16.20;99.90;;;;;;5049290;28;20037;-67
2023/09/20 04:23:03;;;;;;;6.65;2.80;;;16.20;99.90;;;;;;5048327;28;20047;-67
2023/09/20 04:25:29;;;;;;;9.27;2.80;;;16.10;99.90;;;;;;5048241;28;20040;-69
2023/09/20 04:27:54;;;;;;;11.60;3.35;;;16.10;99.90;;;;;;5049112;28;20385;-67
2023/09/20 04:30:20;;;;;;;7.75;3.08;;;16.00;99.90;;;;;;5047017;28;20524;-67
2023/09/20 04:32:46;;;;;;;9.20;2.88;;;16.00;99.90;;;;;;5047899;28;20067;-67
2023/09/20 04:35:12;;;;;;;8.65;2.75;;;16.00;99.90;;;;;;5048682;28;20041;-66
2023/09/20 04:37:38;;;;;;;7.93;3.05;;;15.90;99.90;;;;;;5049339;28;20036;-67
2023/09/20 04:40:07;;;;;;;8.02;3.00;;;15.90;99.90;;;;;;5030060;28;20073;-67
2023/09/20 04:42:33;;;;;;;8.45;3.03;;;15.90;99.90;;;;;;5028886;28;20472;-67
2023/09/20 04:44:59;;;;;;;8.10;2.65;;;15.80;99.90;;;;;;5026972;28;20041;-66
2023/09/20 04:47:25;;;;;;;10.07;2.95;;;15.80;99.90;;;;;;5028386;28;20085;-67
2023/09/20 04:49:51;;;;;;;8.82;3.58;;;15.80;99.90;;;;;;5027938;28;20068;-68
2023/09/20 04:52:16;;;;;;;8.52;2.58;;;15.70;99.90;;;;;;5029616;28;20054;-67
2023/09/20 04:54:44;;;;;;;7.97;2.90;;;15.70;99.90;;;;;;5035156;28;20546;-68
2023/09/20 04:57:12;;;;;;;11.63;2.97;;;15.70;99.90;;;;;;5047685;28;20045;-66
2023/09/20 04:59:39;;;;;;;13.63;3.08;;;15.60;99.90;;;;;;5047179;28;20036;-68
2023/09/20 05:02:06;;;;;;;8.45;3.05;;;15.60;99.90;;;;;;5030467;28;20037;-66
2023/09/20 05:04:34;;;;;;;8.20;3.05;;;15.60;99.90;;;;;;5048374;28;20041;-67
2023/09/20 05:07:06;;;;;;;8.82;2.80;;;15.50;99.90;;;;;;5048822;28;20416;-67
2023/09/20 05:09:34;;;;;;;11.13;3.30;;;15.50;99.90;;;;;;5052003;28;20036;-67
2023/09/20 05:12:00;;;;;;;7.63;2.67;;;15.40;99.90;;;;;;5044643;28;20111;-67
2023/09/20 05:14:27;;;;;;;11.10;3.50;;;15.40;99.90;;;;;;5030538;28;20429;-67
2023/09/20 05:16:52;;;;;;;10.55;3.42;;;15.40;99.90;;;;;;5030995;28;20061;-67
2023/09/20 05:19:18;;;;;;;7.47;3.03;;;15.40;99.90;;;;;;5031831;28;20033;-67
2023/09/20 05:21:44;;;;;;;7.32;2.78;;;15.30;99.90;;;;;;5032480;28;20095;-67
2023/09/20 05:24:09;;;;;;;5.88;2.40;;;15.30;99.90;;;;;;5032520;28;20091;-67
2023/09/20 05:26:35;;;;;;;9.30;2.58;;;15.30;99.90;;;;;;5015617;28;20041;-68
2023/09/20 05:29:01;;;;;;;6.72;2.75;;;15.20;99.90;;;;;;5051445;28;20045;-67
2023/09/20 05:31:28;;;;;;;9.48;2.65;;;15.30;99.90;;;;;;5050042;28;20494;-66
2023/09/20 05:33:55;;;;;;;6.63;2.80;;;15.30;99.90;;;;;;5051510;28;20048;-67
2023/09/20 05:36:21;;;;;;;10.35;2.83;;;15.30;99.90;;;;;;5041446;28;20045;-68
2023/09/20 05:38:48;;;;;;;10.45;2.88;;;15.30;99.90;;;;;;5040126;28;20493;-68
2023/09/20 05:41:15;;;;;;;7.63;2.97;;;15.30;99.90;;;;;;5031037;28;20071;-67
2023/09/20 05:43:42;;;;;;;8.10;2.97;;;15.30;99.90;;;;;;5048196;28;20045;-66
2023/09/20 05:46:08;;;;;;;11.32;3.05;;;15.30;99.90;;;;;;5035657;28;20128;-67
2023/09/20 05:48:34;;;;;;;6.32;2.42;;;15.30;99.90;;;;;;5047451;28;20403;-65
2023/09/20 05:51:00;;;;;;;8.05;2.72;;;15.30;99.90;;;;;;5051203;28;20041;-67
2023/09/20 05:53:26;;;;;;;9.90;2.63;;;15.30;99.90;;;;;;5043514;28;20064;-66
2023/09/20 05:55:52;;;;;;;8.77;2.60;;;15.30;99.90;;;;;;5035844;28;20479;-66
2023/09/20 05:58:17;;;;;;;9.27;2.75;;;15.30;99.90;;;;;;5043470;28;20041;-68
2023/09/20 06:00:43;;;;;;;6.80;2.78;;;15.30;99.90;;;;;;5045778;28;20040;-67
2023/09/20 06:03:11;;;;;;;6.68;2.75;;;15.30;99.90;;;;;;5034890;28;20040;-67
2023/09/20 06:05:38;;;;;;;11.13;3.38;;;15.40;99.90;;;;;;5041963;28;20056;-66
2023/09/20 06:08:06;;;;;;;9.55;2.53;;;15.50;99.90;;;;;;5043958;28;20033;-66
2023/09/20 06:10:32;;;;;;;9.55;3.38;;;15.50;99.90;;;;;;5033299;28;20089;-67
2023/09/20 06:12:58;;;;;;;7.38;2.97;;;15.60;99.90;;;;;;5050905;28;20036;-67
2023/09/20 06:15:23;;;;;;;7.65;2.38;;;15.70;99.90;;;;;;5049008;28;20070;-66
2023/09/20 06:17:49;;;;;;;8.90;2.25;;;15.70;99.90;;;;;;5038785;28;20041;-65
2023/09/20 06:20:24;;;;;;;7.90;2.97;;;15.80;99.90;;;;;;5028885;28;20531;-66
2023/09/20 06:22:50;;;;;;;5.75;2.47;;;15.90;99.90;;;;;;5031030;28;20149;-65
2023/09/20 06:25:19;;;;;;;6.03;2.50;;;16.00;99.90;;;;;;5036468;28;20037;-66
2023/09/20 06:27:45;;;;;;;6.40;2.90;;;16.00;99.90;;;;;;5040067;28;20045;-66
2023/09/20 06:30:14;;;;;;;5.28;2.33;;;16.10;99.90;;;;;;5029631;28;20060;-67
2023/09/20 06:32:41;;;;;;;6.30;2.55;;;16.10;99.90;;;;;;5014375;28;20563;-67
2023/09/20 06:35:10;;;;;;;3.50;2.20;;;16.10;99.90;;;;;;5030003;28;20080;-66
2023/09/20 06:37:39;;;;;;;5.65;2.33;;;16.10;99.90;;;;;;5036607;28;20041;-66
2023/09/20 06:40:33;;;;;;;3.78;2.20;;;16.20;99.90;;;;;;5030909;28;20041;-65
2023/09/20 06:43:00;;;;;;;5.80;2.50;;;16.20;99.90;;;;;;5017935;28;20123;-67
2023/09/20 06:45:27;;;;;;;6.00;2.00;;;16.30;99.90;;;;;;5048361;28;20105;-68
2023/09/20 06:47:55;;;;;;;6.78;2.72;;;16.50;99.90;;;;;;5037810;28;20136;-67
2023/09/20 06:50:21;;;;;;;5.47;2.28;;;16.60;99.90;;;;;;5029681;28;20064;-66
2023/09/20 06:52:48;;;;;;;6.30;2.55;;;16.70;99.90;;;;;;5014080;28;20485;-68
2023/09/20 06:55:16;;;;;;;9.23;2.70;;;16.90;99.90;;;;;;5028944;28;20041;-67
2023/09/20 06:57:41;;;;;;;6.47;2.10;;;17.10;99.90;;;;;;5039766;28;20461;-67
2023/09/20 07:00:18;;;;;;;7.13;2.38;;;17.20;99.90;;;;;;5047891;28;20060;-67
2023/09/20 07:02:43;;;;;;;3.65;2.08;;;17.20;99.90;;;;;;5032352;28;20053;-68
2023/09/20 07:05:09;;;;;;;6.60;2.30;;;17.40;99.90;;;;;;5049634;28;20102;-67
2023/09/20 07:07:35;;;;;;;6.60;2.28;;;17.50;99.90;;;;;;5050365;28;20100;-69
2023/09/20 07:10:02;;;;;;;7.22;2.50;;;17.60;99.90;;;;;;5048817;28;20425;-70
2023/09/20 07:12:33;;;;;;;8.95;2.40;;;17.60;99.90;;;;;;5050251;28;20067;-68
2023/09/20 07:14:59;;;;;;;6.18;2.10;;;17.60;99.90;;;;;;5043713;28;20115;-69
2023/09/20 07:17:24;;;;;;;5.65;2.40;;;17.60;99.90;;;;;;5031676;28;20112;-67
2023/09/20 07:19:51;;;;;;;5.70;2.17;;;17.40;99.90;;;;;;5046524;28;20059;-68
2023/09/20 07:22:17;;;;;;;7.32;2.33;;;17.40;99.90;;;;;;5030054;28;20045;-68
2023/09/20 07:24:45;;;;;;;9.98;2.50;;;17.30;99.90;;;;;;5028765;28;20037;-67
2023/09/20 07:27:11;;;;;;;9.00;2.50;;;17.40;99.90;;;;;;5028635;28;20183;-69
2023/09/20 07:29:40;;;;;;;7.20;2.85;;;17.30;99.90;;;;;;5027679;28;20053;-68
2023/09/20 07:32:05;;;;;;;6.65;2.40;;;17.30;99.90;;;;;;5027550;28;20041;-68
2023/09/20 07:34:35;;;;;;;7.72;2.97;;;17.30;99.90;;;;;;5012715;28;20052;-68
2023/09/20 07:37:02;;;;;;;7.50;2.80;;;17.30;99.90;;;;;;5040714;28;20374;-70
2023/09/20 07:39:30;;;;;;;6.70;2.30;;;17.30;99.90;;;;;;5033094;28;20042;-69
2023/09/20 07:41:58;;;;;;;7.65;3.08;;;17.40;99.90;;;;;;5019955;28;20037;-68
2023/09/20 07:44:24;;;;;;;6.35;2.20;;;17.50;99.90;;;;;;5027901;28;20045;-69
2023/09/20 07:46:53;;;;;;;9.88;2.58;;;17.50;99.90;;;;;;5021792;28;20052;-68
2023/09/20 07:49:19;;;;;;;5.70;2.95;;;17.60;99.90;;;;;;5034261;28;20369;-68
2023/09/20 07:51:45;;;;;;;6.20;2.20;;;17.80;99.90;;;;;;5036818;28;20041;-69
2023/09/20 07:54:14;;;;;;;6.57;2.17;;;18.00;99.90;;;;;;5018804;28;20044;-68
2023/09/20 07:56:43;;;;;;;6.00;2.58;;;18.10;99.90;;;;;;5028521;28;20053;-66
2023/09/20 07:59:09;;;;;;;8.45;2.35;;;18.00;99.90;;;;;;5027941;28;20037;-66
2023/09/20 08:01:34;;;;;;;7.75;2.78;;;18.00;99.90;;;;;;5027445;28;20060;-66
2023/09/20 08:04:00;;;;;;;6.30;2.97;;;18.00;99.90;;;;;;5028174;28;20162;-66
2023/09/20 08:06:28;;;;;;;6.95;2.60;;;18.00;99.90;;;;;;5029352;28;20052;-68
2023/09/20 08:08:55;;;;;;;7.15;2.45;;;18.10;99.90;;;;;;5044817;28;20067;-67
2023/09/20 08:11:21;;;;;;;6.00;2.28;;;18.10;99.90;;;;;;5011417;28;20139;-69
2023/09/20 08:13:49;;;;;;;5.50;2.50;;;18.10;99.90;;;;;;5012261;28;20045;-67
2023/09/20 08:16:15;;;;;;;8.48;2.85;;;18.10;99.90;;;;;;5026598;28;20064;-69
2023/09/20 08:21:25;;;;;;;5.32;2.20;;;18.30;99.90;;;;;;5028544;28;20038;-69
2023/09/20 08:59:53;;;;;;;6.93;2.80;;;18.30;99.90;;;;;;5026515;28;20050;-69
2023/09/20 09:02:24;;;;;;;6.95;2.80;;;18.30;99.90;;;;;;5027303;28;20230;-68
2023/09/20 09:04:54;;;;;;;7.32;2.55;;;18.40;99.90;;;;;;5027749;28;20054;-68
2023/09/20 09:07:23;;;;;;;11.45;2.72;;;18.40;99.90;;;;;;5011783;28;20045;-68
2023/09/20 09:09:49;;;;;;;7.45;2.50;;;18.50;99.90;;;;;;5013821;28;20037;-69
2023/09/20 09:12:15;;;;;;;5.28;2.55;;;18.50;99.90;;;;;;5034829;28;20091;-68
2023/09/20 09:14:42;;;;;;;10.43;2.92;;;18.60;99.90;;;;;;5027332;28;20156;-68
2023/09/20 09:17:09;;;;;;;6.88;2.35;;;18.60;99.90;;;;;;5041992;28;20477;-70
2023/09/20 09:19:36;;;;;;;5.55;1.88;;;18.70;99.90;;;;;;5036615;28;20048;-69
2023/09/20 09:22:02;;;;;;;7.25;2.63;;;18.60;99.90;;;;;;5022898;28;20063;-68
2023/09/20 09:24:41;;;;;;;6.45;2.38;;;18.70;99.90;;;;;;5032413;28;20033;-69
2023/09/20 09:27:08;;;;;;;5.00;2.13;;;18.60;99.90;;;;;;5027298;28;20037;-67
2023/09/20 09:29:33;;;;;;;6.57;2.40;;;18.70;99.90;;;;;;5032811;28;20174;-70
2023/09/20 09:32:04;;;;;;;8.05;2.67;;;18.60;99.90;;;;;;5045795;28;20116;-69
2023/09/20 09:34:30;;;;;;;4.93;1.88;;;18.70;99.90;;;;;;5032625;28;20046;-69
2023/09/20 09:36:56;;;;;;;4.22;2.30;;;18.80;99.90;;;;;;5038391;28;20037;-69
2023/09/20 09:39:21;;;;;;;5.97;2.13;;;18.80;99.90;;;;;;5041382;28;20041;-69
2023/09/20 09:41:47;;;;;;;5.30;2.33;;;18.80;99.90;;;;;;5033417;28;20121;-69
2023/09/20 09:44:14;;;;;;;3.65;2.10;;;18.90;99.90;;;;;;5027295;28;20108;-69
2023/09/20 09:46:41;;;;;;;6.60;2.35;;;18.90;99.90;;;;;;5031949;28;20044;-70
2023/09/20 09:49:11;;;;;;;6.95;2.53;;;19.10;99.90;;;;;;5042806;28;20045;-73
2023/09/20 09:51:50;;;;;;;6.30;2.22;;;19.00;99.90;;;;;;5027876;28;20080;-72
2023/09/20 09:54:17;;;;;;;5.13;2.33;;;19.00;99.90;;;;;;5040826;28;20048;-70
2023/09/20 09:56:43;;;;;;;6.72;2.17;;;19.10;99.90;;;;;;5050045;28;20067;-68
2023/09/20 09:59:09;;;;;;;3.78;2.10;;;19.20;99.90;;;;;;5030178;28;20041;-71
2023/09/20 10:01:39;;;;;;;5.82;2.05;;;19.20;99.90;;;;;;5013075;28;20511;-70
2023/09/20 10:04:07;;;;;;;6.18;2.05;;;19.20;99.90;;;;;;5041631;28;20049;-70
2023/09/20 10:07:01;;;;;;;5.85;2.28;;;19.30;99.90;;;;;;5051331;28;20052;-71
2023/09/20 10:09:31;;;;;;;4.63;1.98;;;19.40;99.90;;;;;;5043757;28;20041;-69
2023/09/20 10:11:57;;;;;;;4.78;2.28;;;19.30;99.90;;;;;;5024405;28;20575;-69
2023/09/20 10:14:23;;;;;;;4.05;1.85;;;19.50;99.90;;;;;;5018789;28;20408;-69
2023/09/20 10:16:49;;;;;;;3.35;1.77;;;19.40;99.90;;;;;;5029835;28;20394;-69
2023/09/20 10:19:16;;;;;;;5.20;2.13;;;19.40;99.90;;;;;;5013401;28;20033;-70
2023/09/20 10:22:10;;;;;;;5.00;2.10;;;19.40;99.90;;;;;;5039340;28;20033;-71
2023/09/20 10:24:50;;;;;;;3.83;2.10;;;19.50;99.90;;;;;;5017254;28;20041;-72
2023/09/20 10:27:17;;;;;;;;;;;19.30;99.90;;;;;;5050600;28;20075;-70
2023/09/20 10:30:10;;;;;;;3.63;1.80;;;19.30;99.90;;;;;;5049026;28;19920;-70
2023/09/20 10:32:45;;;;;;;3.72;2.00;;;19.40;99.90;;;;;;5032822;28;20041;-70
2023/09/20 10:35:27;;;;;;;2.45;1.60;;;19.30;99.90;;;;;;5029323;28;20155;-71
2023/09/20 10:38:05;;;;;;;3.78;2.00;;;19.40;99.90;;;;;;5030411;28;20406;-71
2023/09/20 10:40:46;;;;;;;4.35;1.90;;;19.30;99.90;;;;;;5013294;28;20498;-67
2023/09/20 10:43:13;;;;;;;4.00;1.65;;;19.30;99.90;;;;;;5029753;28;20041;-69
2023/09/20 10:45:39;;;;;;;4.82;1.70;;;19.30;99.90;;;;;;5028267;28;20034;-70
2023/09/20 10:48:12;;;;;;;5.97;1.60;;;19.40;99.90;;;;;;5040674;28;20554;-71
2023/09/20 10:50:49;;;;;;;3.45;1.90;;;19.50;99.90;;;;;;5033693;28;20473;-70
2023/09/20 10:53:18;;;;;;;4.88;1.75;;;19.60;99.90;;;;;;5029617;28;20410;-69
2023/09/20 10:55:49;;;;;;;6.38;1.70;;;19.60;99.90;;;;;;5029768;28;20118;-68
2023/09/20 10:58:17;;;;;;;2.70;1.50;;;19.60;99.90;;;;;;5043385;28;20099;-67
2023/09/20 11:00:44;;;;;;;3.63;1.95;;;19.60;99.90;;;;;;5031004;28;20388;-68
2023/09/20 11:03:11;;;;;;;5.20;1.63;;;19.60;99.90;;;;;;5027186;28;20071;-67
2023/09/20 11:05:38;;;;;;;5.00;2.05;;;19.60;99.90;;;;;;5020965;28;20064;-70
2023/09/20 11:08:11;;;;;;;3.67;1.67;;;19.60;99.90;;;;;;5049270;28;20033;-68
2023/09/20 11:10:46;;;;;;;3.10;1.80;;;19.50;99.90;;;;;;5032865;28;20041;-68
2023/09/20 11:13:13;;;;;;;5.05;1.60;;;19.60;99.90;;;;;;5029534;28;20448;-68
2023/09/20 11:15:43;;;;;;;3.53;1.60;;;19.60;99.90;;;;;;5036036;28;20087;-68
2023/09/20 11:18:10;;;;;;;2.65;1.80;;;19.60;99.90;;;;;;5035989;28;20041;-67
2023/09/20 11:20:37;;;;;;;5.18;1.90;;;19.50;99.90;;;;;;5033537;28;20076;-67
2023/09/20 11:23:03;;;;;;;5.78;1.80;;;19.60;99.90;;;;;;5031815;28;20037;-68
2023/09/20 11:25:29;;;;;;;3.47;1.80;;;19.60;99.90;;;;;;5033355;28;20064;-69
2023/09/20 11:27:56;;;;;;;4.30;1.80;;;19.80;99.90;;;;;;5029274;28;21047;-68
2023/09/20 11:30:27;;;;;;;4.20;1.90;;;19.90;99.90;;;;;;5010772;28;20045;-68
2023/09/20 11:32:53;;;;;;;6.00;1.70;;;20.10;99.90;;;;;;5012651;28;20462;-68
2023/09/20 11:35:33;;;;;;;4.07;1.65;;;20.10;99.90;;;;;;5029005;28;20041;-67
2023/09/20 11:37:59;;;;;;;4.78;2.08;;;20.20;99.90;;;;;;5029836;28;20454;-67
2023/09/20 11:40:25;;;;;;;5.30;2.10;;;20.30;99.90;;;;;;5028699;28;20037;-69
2023/09/20 11:42:52;;;;;;;4.65;1.50;;;20.20;99.90;;;;;;5030095;28;20132;-68
2023/09/20 11:45:18;;;;;;;5.68;1.75;;;20.20;99.90;;;;;;5027194;28;20071;-69
2023/09/20 11:47:44;;;;;;;2.35;1.40;;;20.20;99.90;;;;;;5029102;28;20045;-69
2023/09/20 11:50:13;;;;;;;3.35;1.80;;;20.20;99.90;;;;;;5027069;28;20053;-69
2023/09/20 11:52:44;;;;;;;3.50;1.60;;;20.20;99.90;;;;;;5027171;28;20038;-68
2023/09/20 11:55:16;;;;;;;4.70;1.63;;;20.30;99.90;;;;;;5016238;28;20131;-68
2023/09/20 11:57:45;;;;;;;3.05;1.77;;;20.40;99.90;;;;;;5016921;28;20156;-69
2023/09/20 12:00:16;;;;;;;3.15;1.95;;;20.40;99.90;;;;;;5021714;28;20049;-69
2023/09/20 12:02:42;;;;;;;2.70;1.80;;;20.50;99.90;;;;;;5002791;28;20058;-70
2023/09/20 12:05:08;;;;;;;4.85;1.63;;;20.60;99.90;;;;;;5005467;28;20103;-69
2023/09/20 12:07:34;;;;;;;4.95;2.10;;;20.80;99.90;;;;;;5022464;28;20057;-70
2023/09/20 12:10:00;;;;;;;4.32;2.00;;;20.90;99.90;;;;;;5020363;28;20068;-67
2023/09/20 12:12:25;;;;;;;5.80;1.70;;;20.90;99.90;;;;;;5018139;28;20037;-72
2023/09/20 12:14:51;;;;;;;3.10;1.50;;;21.00;99.90;;;;;;5009927;28;20048;-69
2023/09/20 12:17:16;;;;;;;3.85;2.13;;;21.10;99.90;;;;;;5003528;28;20122;-71
2023/09/20 12:19:43;;;;;;;5.20;2.10;;;21.10;99.50;;;;;;5019325;28;20069;-67
2023/09/20 12:22:09;;;;;;;5.03;2.35;;;21.00;99.90;;;;;;5011406;28;20422;-68
2023/09/20 12:24:35;;;;;;;7.80;2.38;;;21.00;99.90;;;;;;5027432;28;20043;-70
2023/09/20 12:27:00;;;;;;;3.20;2.20;;;21.00;99.90;;;;;;5027577;28;20053;-67
2023/09/20 12:29:26;;;;;;;4.43;2.00;;;21.00;99.90;;;;;;5026304;28;20061;-67
2023/09/20 12:31:52;;;;;;;4.90;2.10;;;21.00;99.90;;;;;;5027133;28;20037;-68
2023/09/20 12:34:18;;;;;;;4.40;2.25;;;21.10;99.90;;;;;;5027566;28;20068;-68
2023/09/20 12:36:46;;;;;;;5.28;2.13;;;21.10;99.20;;;;;;5041369;28;20132;-69
2023/09/20 12:39:12;;;;;;;5.68;2.33;;;21.00;99.30;;;;;;5031092;28;20640;-68
2023/09/20 12:41:38;;;;;;;4.40;2.35;;;20.90;99.70;;;;;;5030911;28;20039;-68
2023/09/20 12:44:04;;;;;;;4.10;2.47;;;20.90;99.40;;;;;;5030677;28;20036;-68
2023/09/20 12:46:31;;;;;;;4.63;2.28;;;20.90;99.40;;;;;;5046703;28;20037;-68
2023/09/20 12:48:58;;;;;;;8.43;2.42;;;21.00;99.80;;;;;;5047293;28;20136;-69
2023/09/20 12:51:24;;;;;;;5.43;2.50;;;21.10;99.40;;;;;;5047788;28;20103;-69
2023/09/20 12:53:50;;;;;;;3.17;2.17;;;21.20;97.20;;;;;;5048579;28;20092;-67
2023/09/20 12:56:16;;;;;;;6.10;2.28;;;21.40;97.80;;;;;;5031291;28;20036;-69
2023/09/20 12:58:42;;;;;;;7.32;2.20;;;21.50;97.10;;;;;;5048952;28;20044;-68
2023/09/20 13:01:10;;;;;;;4.60;2.30;;;21.60;97.00;;;;;;5046304;28;20124;-71
2023/09/20 13:03:43;;;;;;;3.88;2.00;;;21.70;95.80;;;;;;5030807;28;20098;-68
2023/09/20 13:06:09;;;;;;;4.93;2.33;;;21.90;94.60;;;;;;5048834;28;20049;-67
2023/09/20 13:08:37;;;;;;;5.60;2.17;;;21.90;95.00;;;;;;5048419;28;20036;-70
2023/09/20 13:11:05;;;;;;;5.15;3.15;;;21.80;94.60;;;;;;5047680;28;20053;-69
2023/09/20 13:13:31;;;;;;;3.08;2.10;;;21.80;95.00;;;;;;5048418;28;20052;-70
2023/09/20 13:15:57;;;;;;;4.60;2.13;;;21.80;94.80;;;;;;5030089;28;20089;-68
2023/09/20 13:18:23;;;;;;;3.58;2.40;;;21.60;94.80;;;;;;5046935;28;20041;-68
2023/09/20 13:20:49;;;;;;;3.65;2.10;;;21.70;94.40;;;;;;5048902;28;20029;-66
2023/09/20 13:23:14;;;;;;;5.30;2.25;;;21.80;94.10;;;;;;5047842;28;20032;-68
2023/09/20 13:25:42;;;;;;;4.90;2.08;;;21.80;94.30;;;;;;5047628;28;20045;-73
2023/09/20 13:28:08;;;;;;;5.55;2.20;;;21.70;92.10;;;;;;5032016;28;20049;-67